Time;durP1;ratioP1;P1;durP2;ratioP2;P2;SDS_P1;SDS_P2;PMS_P1;PMS_P2;Temp;Humidity;BMP_temperature;BMP_pressure;BME280_temperature;BME280_humidity;BME280_pressure;Samples;Min_cycle;Max_cycle;Signal;HPM_P1;HPM_P2
2023/06/08 00:00:14;;;;;;;11.45;9.93;;;;;;;;;;5137167;27;20051;-54
2023/06/08 00:02:43;;;;;;;10.30;9.18;;;;;;;;;;5135684;27;20047;-54
2023/06/08 00:05:13;;;;;;;12.50;9.52;;;;;;;;;;5136094;27;20050;-53
2023/06/08 00:07:40;;;;;;;12.15;10.85;;;;;;;;;;5136074;27;20055;-53
2023/06/08 00:10:12;;;;;;;14.65;10.70;;;;;;;;;;5136109;27;20051;-53
2023/06/08 00:12:42;;;;;;;13.10;10.73;;;;;;;;;;5135643;27;20054;-53
2023/06/08 00:15:10;;;;;;;11.35;9.27;;;;;;;;;;5134831;27;20062;-54
2023/06/08 00:17:38;;;;;;;10.68;9.57;;;;;;;;;;5135487;27;20487;-54
2023/06/08 00:20:08;;;;;;;12.50;9.85;;;;;;;;;;5136014;27;20058;-55
2023/06/08 00:22:37;;;;;;;11.25;9.82;;;;;;;;;;5135621;27;20054;-54
2023/06/08 00:25:07;;;;;;;10.73;8.93;;;;;;;;;;5135831;27;20381;-56
2023/06/08 00:27:35;;;;;;;10.07;8.73;;;;;;;;;;5135237;27;20416;-55
2023/06/08 00:30:02;;;;;;;11.40;9.00;;;;;;;;;;5135176;27;20058;-54
2023/06/08 00:32:28;;;;;;;10.13;9.13;;;;;;;;;;5135436;27;20047;-56
2023/06/08 00:34:55;;;;;;;14.38;10.05;;;;;;;;;;5135098;27;20051;-55
2023/06/08 00:37:22;;;;;;;9.90;8.90;;;;;;;;;;5135037;27;20051;-54
2023/06/08 00:39:50;;;;;;;11.75;9.77;;;;;;;;;;5134765;27;20054;-54
2023/06/08 00:42:17;;;;;;;11.38;9.48;;;;;;;;;;5135256;27;20481;-54
2023/06/08 00:44:44;;;;;;;12.93;9.88;;;;;;;;;;5134793;27;20047;-54
2023/06/08 00:47:11;;;;;;;12.90;9.80;;;;;;;;;;5134930;27;20055;-55
2023/06/08 00:49:48;;;;;;;12.40;10.35;;;;;;;;;;5135349;27;20047;-55
2023/06/08 00:52:26;;;;;;;14.90;10.40;;;;;;;;;;5135172;27;20043;-53
2023/06/08 00:55:00;;;;;;;14.50;11.03;;;;;;;;;;5133949;27;20055;-53
2023/06/08 00:57:29;;;;;;;12.23;9.63;;;;;;;;;;5134712;27;20473;-54
2023/06/08 00:59:59;;;;;;;18.03;11.07;;;;;;;;;;5134365;27;20058;-55
2023/06/08 01:02:26;;;;;;;15.85;10.48;;;;;;;;;;5134684;27;20047;-54
2023/06/08 01:04:53;;;;;;;14.50;11.52;;;;;;;;;;5134379;27;20062;-53
2023/06/08 01:07:27;;;;;;;13.35;11.32;;;;;;;;;;5133776;27;20537;-53
2023/06/08 01:10:03;;;;;;;15.50;11.68;;;;;;;;;;5135127;27;20472;-53
2023/06/08 01:12:34;;;;;;;16.75;11.43;;;;;;;;;;5134357;27;20047;-55
2023/06/08 01:15:05;;;;;;;13.52;11.48;;;;;;;;;;5132965;27;20062;-55
2023/06/08 01:17:37;;;;;;;13.52;11.57;;;;;;;;;;5134338;27;20051;-55
2023/06/08 01:20:16;;;;;;;14.68;11.90;;;;;;;;;;5134786;27;20062;-55
2023/06/08 01:22:44;;;;;;;;;;;;;;;;;;5134274;27;20053;-54
2023/06/08 01:25:13;;;;;;;15.93;12.70;;;;;;;;;;5134039;27;19927;-55
2023/06/08 01:27:40;;;;;;;19.75;13.25;;;;;;;;;;5134701;27;20416;-55
2023/06/08 01:30:08;;;;;;;18.48;13.15;;;;;;;;;;5133399;27;20051;-55
2023/06/08 01:32:35;;;;;;;17.20;12.98;;;;;;;;;;5134397;27;20043;-55
2023/06/08 01:35:02;;;;;;;18.63;13.10;;;;;;;;;;5134384;27;20047;-55
2023/06/08 01:37:33;;;;;;;16.88;13.90;;;;;;;;;;5134217;27;20047;-55
2023/06/08 01:40:02;;;;;;;19.08;12.68;;;;;;;;;;5134260;27;20069;-55
2023/06/08 01:42:33;;;;;;;20.58;13.07;;;;;;;;;;5133967;27;20518;-53
2023/06/08 01:45:01;;;;;;;17.20;12.75;;;;;;;;;;5132779;27;20488;-54
2023/06/08 01:47:31;;;;;;;15.38;13.05;;;;;;;;;;5133836;27;20050;-52
2023/06/08 01:49:59;;;;;;;16.10;12.52;;;;;;;;;;5133449;27;20051;-54
2023/06/08 01:52:26;;;;;;;15.48;11.77;;;;;;;;;;5130950;27;20487;-54
2023/06/08 01:54:53;;;;;;;20.17;14.02;;;;;;;;;;5113291;28;20052;-52
2023/06/08 02:00:23;;;;;;;16.85;13.45;;;;;;;;;;5012063;28;20050;-54
2023/06/08 02:02:50;;;;;;;20.52;13.27;;;;;;;;;;5119664;27;20062;-54
2023/06/08 02:05:18;;;;;;;15.32;13.05;;;;;;;;;;5133857;27;20061;-52
2023/06/08 02:07:45;;;;;;;15.80;13.20;;;;;;;;;;5133523;27;20055;-54
2023/06/08 02:10:13;;;;;;;17.83;14.90;;;;;;;;;;5132858;27;20051;-53
2023/06/08 02:12:40;;;;;;;16.85;14.13;;;;;;;;;;5133664;27;20054;-54
2023/06/08 02:15:07;;;;;;;17.30;13.77;;;;;;;;;;5131430;27;20051;-54
2023/06/08 02:17:36;;;;;;;16.48;12.52;;;;;;;;;;5133479;27;20051;-53
2023/06/08 02:20:06;;;;;;;18.33;14.47;;;;;;;;;;5133836;28;20055;-53
2023/06/08 02:22:33;;;;;;;18.02;14.45;;;;;;;;;;5133627;28;20479;-53
2023/06/08 02:25:03;;;;;;;17.15;13.90;;;;;;;;;;5133647;28;20055;-54
2023/06/08 02:27:35;;;;;;;16.02;12.13;;;;;;;;;;5133490;28;20059;-52
2023/06/08 02:30:03;;;;;;;16.13;12.20;;;;;;;;;;5131721;27;20051;-49
2023/06/08 02:32:32;;;;;;;16.83;12.68;;;;;;;;;;5133141;28;20055;-52
2023/06/08 02:35:01;;;;;;;15.30;12.05;;;;;;;;;;5133421;28;20051;-51
2023/06/08 02:37:28;;;;;;;17.33;12.95;;;;;;;;;;5133480;28;20055;-52
2023/06/08 02:39:55;;;;;;;16.40;12.13;;;;;;;;;;5133291;28;20467;-53
2023/06/08 02:42:22;;;;;;;19.42;13.68;;;;;;;;;;5133149;28;20438;-53
2023/06/08 02:44:49;;;;;;;16.83;12.93;;;;;;;;;;5133147;27;20049;-51
2023/06/08 02:47:16;;;;;;;17.30;13.27;;;;;;;;;;5133402;28;20055;-53
2023/06/08 02:49:43;;;;;;;16.77;12.65;;;;;;;;;;5133448;28;20066;-52
2023/06/08 02:52:11;;;;;;;15.80;12.73;;;;;;;;;;5133263;28;20058;-52
2023/06/08 02:54:38;;;;;;;14.00;12.50;;;;;;;;;;5133389;28;20051;-49
2023/06/08 02:57:05;;;;;;;15.38;13.00;;;;;;;;;;5134306;27;20047;-58
2023/06/08 02:59:32;;;;;;;17.75;13.90;;;;;;;;;;5135979;27;20050;-58
2023/06/08 03:01:59;;;;;;;16.48;12.95;;;;;;;;;;5137137;27;20063;-58
2023/06/08 03:04:27;;;;;;;14.00;12.20;;;;;;;;;;5137190;27;20047;-58
2023/06/08 03:06:54;;;;;;;15.85;12.38;;;;;;;;;;5136973;27;20047;-58
2023/06/08 03:09:24;;;;;;;20.15;14.90;;;;;;;;;;5136886;27;20055;-57
2023/06/08 03:11:51;;;;;;;17.63;13.70;;;;;;;;;;5136964;27;20491;-58
2023/06/08 03:14:18;;;;;;;20.70;15.30;;;;;;;;;;5135649;27;20510;-58
2023/06/08 03:16:45;;;;;;;14.07;12.02;;;;;;;;;;5136809;27;20051;-59
2023/06/08 03:19:12;;;;;;;16.70;13.32;;;;;;;;;;5136734;27;20051;-58
2023/06/08 03:21:41;;;;;;;19.48;14.63;;;;;;;;;;5136730;27;20058;-58
2023/06/08 03:24:08;;;;;;;21.63;14.02;;;;;;;;;;5136645;27;20054;-58
2023/06/08 03:26:37;;;;;;;20.83;15.10;;;;;;;;;;5136924;27;20063;-58
2023/06/08 03:29:03;;;;;;;18.88;14.93;;;;;;;;;;5135886;27;20406;-58
2023/06/08 03:31:36;;;;;;;16.58;14.82;;;;;;;;;;5136524;27;20231;-58
2023/06/08 03:34:03;;;;;;;17.08;14.30;;;;;;;;;;5136295;27;20047;-58
2023/06/08 03:36:33;;;;;;;17.70;13.75;;;;;;;;;;5136457;27;20050;-58
2023/06/08 03:39:00;;;;;;;15.63;13.65;;;;;;;;;;5136379;27;20058;-58
2023/06/08 03:41:27;;;;;;;17.17;13.38;;;;;;;;;;5116396;28;20052;-58
2023/06/08 03:43:56;;;;;;;16.48;14.25;;;;;;;;;;5127504;27;20055;-58
2023/06/08 03:46:22;;;;;;;18.85;13.02;;;;;;;;;;5136303;27;20055;-58
2023/06/08 03:48:49;;;;;;;18.45;14.93;;;;;;;;;;5136459;27;20047;-57
2023/06/08 03:51:16;;;;;;;17.25;13.48;;;;;;;;;;5136431;27;20054;-57
2023/06/08 03:53:43;;;;;;;19.83;13.85;;;;;;;;;;5135914;27;20066;-57
2023/06/08 03:56:10;;;;;;;14.60;12.70;;;;;;;;;;5135392;27;20051;-58
2023/06/08 03:58:38;;;;;;;15.35;12.70;;;;;;;;;;5135663;27;20061;-59
2023/06/08 04:01:06;;;;;;;20.30;13.18;;;;;;;;;;5136236;27;20047;-59
2023/06/08 04:03:34;;;;;;;15.88;13.38;;;;;;;;;;5135973;27;20400;-57
2023/06/08 04:06:01;;;;;;;16.65;14.27;;;;;;;;;;5135980;27;20058;-59
2023/06/08 04:08:31;;;;;;;16.95;13.70;;;;;;;;;;5135015;27;20055;-59
2023/06/08 04:10:58;;;;;;;18.10;12.63;;;;;;;;;;5135978;27;20055;-59
2023/06/08 04:13:25;;;;;;;16.60;12.82;;;;;;;;;;5134279;27;20051;-58
2023/06/08 04:15:52;;;;;;;16.60;11.93;;;;;;;;;;5135784;27;20062;-58
2023/06/08 04:18:21;;;;;;;17.77;12.13;;;;;;;;;;5135967;27;20074;-58
2023/06/08 04:20:48;;;;;;;20.38;13.23;;;;;;;;;;5135907;27;20051;-59
2023/06/08 04:23:15;;;;;;;15.43;11.88;;;;;;;;;;5135794;27;20488;-58
2023/06/08 04:25:42;;;;;;;15.02;11.77;;;;;;;;;;5135582;27;20051;-59
2023/06/08 04:28:09;;;;;;;16.33;11.48;;;;;;;;;;5133881;27;20051;-59
2023/06/08 04:30:36;;;;;;;15.20;11.98;;;;;;;;;;5135835;27;20047;-59
2023/06/08 04:33:03;;;;;;;17.33;12.13;;;;;;;;;;5135085;27;20051;-59
2023/06/08 04:35:32;;;;;;;15.38;11.88;;;;;;;;;;5134730;27;20051;-59
2023/06/08 04:37:59;;;;;;;16.45;13.23;;;;;;;;;;5132636;27;20051;-59
2023/06/08 04:40:26;;;;;;;20.73;11.02;;;;;;;;;;5134083;27;20051;-59
2023/06/08 04:42:53;;;;;;;20.17;12.18;;;;;;;;;;5134728;27;20434;-59
2023/06/08 04:45:20;;;;;;;15.60;12.13;;;;;;;;;;5134147;27;20050;-59
2023/06/08 04:47:47;;;;;;;16.13;11.25;;;;;;;;;;5135065;27;20051;-59
2023/06/08 04:50:14;;;;;;;16.20;11.20;;;;;;;;;;5135349;27;20484;-59
2023/06/08 04:52:45;;;;;;;15.40;10.90;;;;;;;;;;5134758;27;20062;-59
2023/06/08 04:55:13;;;;;;;15.63;9.95;;;;;;;;;;5135189;27;20495;-59
2023/06/08 04:57:40;;;;;;;15.43;9.93;;;;;;;;;;5133443;27;20055;-58
2023/06/08 05:00:13;;;;;;;14.82;10.82;;;;;;;;;;5135009;27;20492;-58
2023/06/08 05:02:44;;;;;;;17.15;10.63;;;;;;;;;;5134767;27;20066;-54
2023/06/08 05:05:12;;;;;;;13.85;11.18;;;;;;;;;;5134532;27;20073;-56
2023/06/08 05:07:39;;;;;;;15.23;10.68;;;;;;;;;;5130668;27;20055;-53
2023/06/08 05:10:08;;;;;;;14.75;10.75;;;;;;;;;;5132063;27;20055;-58
2023/06/08 05:12:34;;;;;;;15.80;10.55;;;;;;;;;;5134154;27;20055;-59
2023/06/08 05:15:02;;;;;;;14.73;10.07;;;;;;;;;;5134477;27;20043;-59
2023/06/08 05:17:29;;;;;;;14.70;10.10;;;;;;;;;;5134399;27;20051;-59
2023/06/08 05:19:56;;;;;;;15.05;10.63;;;;;;;;;;5134500;27;20058;-58
2023/06/08 05:22:23;;;;;;;13.65;10.20;;;;;;;;;;5134417;27;20055;-58
2023/06/08 05:24:49;;;;;;;12.20;9.38;;;;;;;;;;5128362;27;20060;-59
2023/06/08 05:27:18;;;;;;;15.35;10.65;;;;;;;;;;5124567;27;20055;-54
2023/06/08 05:29:44;;;;;;;14.65;9.68;;;;;;;;;;5132389;27;20433;-54
2023/06/08 05:32:11;;;;;;;12.50;10.05;;;;;;;;;;5133933;27;20055;-53
2023/06/08 05:34:38;;;;;;;13.25;9.88;;;;;;;;;;5133966;27;20046;-54
2023/06/08 05:37:05;;;;;;;11.27;9.23;;;;;;;;;;5133906;27;20411;-51
2023/06/08 05:39:32;;;;;;;13.98;10.00;;;;;;;;;;5128286;27;20095;-52
2023/06/08 05:41:58;;;;;;;13.45;9.05;;;;;;;;;;5133758;27;20066;-55
2023/06/08 05:44:26;;;;;;;15.32;9.85;;;;;;;;;;5133927;27;20070;-54
2023/06/08 05:46:53;;;;;;;13.77;9.55;;;;;;;;;;5127061;27;20133;-59
2023/06/08 05:49:20;;;;;;;14.73;10.52;;;;;;;;;;5117893;27;20043;-59
2023/06/08 05:51:47;;;;;;;13.90;9.30;;;;;;;;;;5120190;27;20054;-58
2023/06/08 05:54:14;;;;;;;12.25;9.48;;;;;;;;;;5133627;27;20055;-58
2023/06/08 05:56:40;;;;;;;12.75;9.07;;;;;;;;;;5122610;27;20052;-58
2023/06/08 05:59:07;;;;;;;12.90;8.93;;;;;;;;;;5126023;27;20051;-58
2023/06/08 06:01:35;;;;;;;11.45;9.57;;;;;;;;;;5132381;27;20058;-59
2023/06/08 06:04:02;;;;;;;13.68;9.95;;;;;;;;;;5130957;27;20056;-59
2023/06/08 06:06:30;;;;;;;11.77;9.85;;;;;;;;;;5119914;27;20062;-59
2023/06/08 06:08:57;;;;;;;11.05;8.43;;;;;;;;;;5112522;28;20117;-59
2023/06/08 06:11:25;;;;;;;10.65;8.48;;;;;;;;;;5133043;27;20066;-58
2023/06/08 06:13:52;;;;;;;11.80;9.20;;;;;;;;;;5131196;27;20065;-58
2023/06/08 06:16:19;;;;;;;12.63;9.13;;;;;;;;;;5133507;27;20471;-59
2023/06/08 06:18:47;;;;;;;12.13;8.52;;;;;;;;;;5124827;27;20059;-59
2023/06/08 06:21:14;;;;;;;12.07;9.20;;;;;;;;;;5127706;28;20399;-58
2023/06/08 06:23:41;;;;;;;12.00;8.27;;;;;;;;;;5128168;27;20051;-58
2023/06/08 06:26:08;;;;;;;12.88;8.90;;;;;;;;;;5125174;28;20043;-57
2023/06/08 06:28:36;;;;;;;11.68;8.25;;;;;;;;;;5123249;27;20031;-58
2023/06/08 06:31:03;;;;;;;9.25;7.82;;;;;;;;;;5136525;27;20062;-59
2023/06/08 06:33:29;;;;;;;13.45;8.93;;;;;;;;;;5136748;27;20581;-59
2023/06/08 06:35:58;;;;;;;12.25;8.57;;;;;;;;;;5137673;27;20054;-59
2023/06/08 06:38:27;;;;;;;15.20;7.65;;;;;;;;;;5135307;27;20059;-59
2023/06/08 06:40:54;;;;;;;11.50;8.27;;;;;;;;;;5134563;27;20051;-59
2023/06/08 06:43:21;;;;;;;10.38;7.88;;;;;;;;;;5135724;27;20043;-59
2023/06/08 06:45:50;;;;;;;10.32;7.07;;;;;;;;;;5137094;27;20058;-59
2023/06/08 06:48:18;;;;;;;11.57;8.45;;;;;;;;;;5137186;27;20051;-53
2023/06/08 06:50:45;;;;;;;12.77;8.55;;;;;;;;;;5131629;27;20047;-50
2023/06/08 06:53:13;;;;;;;12.18;8.32;;;;;;;;;;5117393;27;20070;-53
2023/06/08 06:55:40;;;;;;;11.10;8.20;;;;;;;;;;5122135;27;20153;-54
2023/06/08 06:58:08;;;;;;;9.93;8.50;;;;;;;;;;5123482;27;20841;-54
2023/06/08 07:00:38;;;;;;;11.07;8.00;;;;;;;;;;5131528;27;20047;-54
2023/06/08 07:03:05;;;;;;;12.73;8.13;;;;;;;;;;5121716;27;20065;-55
2023/06/08 07:05:34;;;;;;;11.32;7.68;;;;;;;;;;5130248;27;20059;-54
2023/06/08 07:08:01;;;;;;;14.65;7.95;;;;;;;;;;5131342;27;20055;-55
2023/06/08 07:10:29;;;;;;;8.90;7.32;;;;;;;;;;5132589;27;20451;-54
2023/06/08 07:12:56;;;;;;;9.05;7.57;;;;;;;;;;5133802;27;20459;-55
2023/06/08 07:15:23;;;;;;;9.52;7.68;;;;;;;;;;5130843;27;20055;-54
2023/06/08 07:17:50;;;;;;;9.50;7.30;;;;;;;;;;5132786;27;20052;-52
2023/06/08 07:20:17;;;;;;;10.63;7.20;;;;;;;;;;5132431;27;20047;-53
2023/06/08 07:22:44;;;;;;;10.02;7.05;;;;;;;;;;5117583;27;20043;-54
2023/06/08 07:25:12;;;;;;;11.40;7.57;;;;;;;;;;5131320;27;20476;-53
2023/06/08 07:27:40;;;;;;;13.70;7.73;;;;;;;;;;5116260;27;20476;-53
2023/06/08 07:30:08;;;;;;;13.82;8.25;;;;;;;;;;5128254;27;20492;-54
2023/06/08 07:32:35;;;;;;;9.10;7.05;;;;;;;;;;5131443;27;20051;-54
2023/06/08 07:35:04;;;;;;;11.27;7.88;;;;;;;;;;5125747;27;20051;-54
2023/06/08 07:37:30;;;;;;;10.43;7.95;;;;;;;;;;5124052;27;20059;-54
2023/06/08 07:39:57;;;;;;;11.73;7.78;;;;;;;;;;5135284;27;20062;-53
2023/06/08 07:42:24;;;;;;;15.68;8.40;;;;;;;;;;5132214;27;20047;-50
2023/06/08 07:44:52;;;;;;;11.27;8.35;;;;;;;;;;5129890;27;20051;-51
2023/06/08 07:47:19;;;;;;;11.68;7.75;;;;;;;;;;5128274;27;20049;-51
2023/06/08 07:49:46;;;;;;;12.23;8.45;;;;;;;;;;5124153;27;20074;-49
2023/06/08 07:52:13;;;;;;;11.57;7.55;;;;;;;;;;5136298;27;20051;-54
2023/06/08 07:54:40;;;;;;;9.05;7.80;;;;;;;;;;5130519;27;20098;-53
2023/06/08 07:57:07;;;;;;;11.50;8.00;;;;;;;;;;5127854;27;20055;-58
2023/06/08 07:59:34;;;;;;;10.35;7.85;;;;;;;;;;5129510;27;20502;-51
2023/06/08 08:02:02;;;;;;;8.27;6.70;;;;;;;;;;5108752;27;20507;-53
2023/06/08 08:04:29;;;;;;;8.23;6.20;;;;;;;;;;5128550;27;20487;-53
2023/06/08 08:06:56;;;;;;;8.82;6.90;;;;;;;;;;5125614;27;20050;-55
2023/06/08 08:09:25;;;;;;;8.20;6.13;;;;;;;;;;5131680;27;20066;-56
2023/06/08 08:11:52;;;;;;;7.85;5.75;;;;;;;;;;5131310;27;20047;-52
2023/06/08 08:14:19;;;;;;;11.50;8.02;;;;;;;;;;5120912;27;20060;-53
2023/06/08 08:16:46;;;;;;;8.32;6.40;;;;;;;;;;5131409;27;20051;-54
2023/06/08 08:19:15;;;;;;;8.65;6.93;;;;;;;;;;5129896;27;20438;-50
2023/06/08 08:21:43;;;;;;;8.38;6.60;;;;;;;;;;5126869;27;20399;-52
2023/06/08 08:24:10;;;;;;;7.50;6.20;;;;;;;;;;5115102;28;20492;-51
2023/06/08 08:26:38;;;;;;;8.43;5.85;;;;;;;;;;5123032;27;20054;-52
2023/06/08 08:29:04;;;;;;;7.38;5.78;;;;;;;;;;5135566;27;20047;-52
2023/06/08 08:31:31;;;;;;;10.68;6.75;;;;;;;;;;5135584;27;20051;-59
2023/06/08 08:33:58;;;;;;;10.80;7.22;;;;;;;;;;5135042;27;20073;-59
2023/06/08 08:36:27;;;;;;;8.82;6.47;;;;;;;;;;5135140;27;20043;-59
2023/06/08 08:38:54;;;;;;;9.38;5.53;;;;;;;;;;5135076;27;20078;-59
2023/06/08 08:41:21;;;;;;;8.07;6.05;;;;;;;;;;5135409;27;20047;-59
2023/06/08 08:43:50;;;;;;;8.77;5.22;;;;;;;;;;5135325;27;20066;-59
2023/06/08 08:46:18;;;;;;;9.02;6.15;;;;;;;;;;5135060;27;20043;-59
2023/06/08 08:48:45;;;;;;;7.93;5.75;;;;;;;;;;5134821;27;20055;-59
2023/06/08 08:51:18;;;;;;;6.17;5.37;;;;;;;;;;5135145;27;20051;-59
2023/06/08 08:53:47;;;;;;;8.60;6.20;;;;;;;;;;5134759;27;21016;-60
2023/06/08 08:56:17;;;;;;;6.07;4.90;;;;;;;;;;5134047;27;20074;-59
2023/06/08 08:58:44;;;;;;;7.95;6.00;;;;;;;;;;5135053;27;20046;-59
2023/06/08 09:01:11;;;;;;;6.97;5.43;;;;;;;;;;5124685;27;20048;-60
2023/06/08 09:03:39;;;;;;;6.65;5.68;;;;;;;;;;5130729;27;20051;-60
2023/06/08 09:06:06;;;;;;;7.18;5.25;;;;;;;;;;5134821;27;20047;-60
2023/06/08 09:08:33;;;;;;;8.88;5.82;;;;;;;;;;5134793;27;20055;-60
2023/06/08 09:11:05;;;;;;;7.38;5.55;;;;;;;;;;5134775;27;20054;-60
2023/06/08 09:13:35;;;;;;;7.35;5.68;;;;;;;;;;5134814;27;20050;-60
2023/06/08 09:16:11;;;;;;;7.03;6.00;;;;;;;;;;5134492;27;20395;-60
2023/06/08 09:18:38;;;;;;;6.28;5.70;;;;;;;;;;5134345;27;20051;-60
2023/06/08 09:21:21;;;;;;;7.50;5.15;;;;;;;;;;5134421;27;20047;-60
2023/06/08 09:24:03;;;;;;;7.10;6.30;;;;;;;;;;5134613;27;20062;-60
2023/06/08 09:26:32;;;;;;;7.63;5.68;;;;;;;;;;5134441;27;20414;-60
2023/06/08 09:29:01;;;;;;;7.68;5.47;;;;;;;;;;5134153;27;20062;-60
2023/06/08 09:31:31;;;;;;;9.10;6.25;;;;;;;;;;5134221;27;20051;-60
2023/06/08 09:34:10;;;;;;;10.60;5.90;;;;;;;;;;5134051;27;20058;-59
2023/06/08 09:36:38;;;;;;;7.38;5.47;;;;;;;;;;5134009;27;20066;-59
2023/06/08 09:39:05;;;;;;;7.63;5.75;;;;;;;;;;5133611;27;20054;-59
2023/06/08 09:41:34;;;;;;;6.20;5.35;;;;;;;;;;5133535;27;20421;-59
2023/06/08 09:44:01;;;;;;;7.93;5.07;;;;;;;;;;5133954;27;20062;-59
2023/06/08 09:46:35;;;;;;;6.72;5.47;;;;;;;;;;5133807;27;20051;-59
2023/06/08 09:49:03;;;;;;;7.78;5.78;;;;;;;;;;5133850;27;20051;-59
2023/06/08 09:51:31;;;;;;;6.72;5.63;;;;;;;;;;5134108;27;20054;-59
2023/06/08 09:53:59;;;;;;;7.47;6.13;;;;;;;;;;5133569;27;20062;-59
2023/06/08 09:56:26;;;;;;;8.43;5.88;;;;;;;;;;5133357;27;20051;-59
2023/06/08 09:58:56;;;;;;;6.32;5.47;;;;;;;;;;5134014;27;20502;-59
2023/06/08 10:01:27;;;;;;;9.55;5.95;;;;;;;;;;5120175;27;20048;-59
2023/06/08 10:03:57;;;;;;;7.10;5.43;;;;;;;;;;5117470;27;20062;-59
2023/06/08 10:06:25;;;;;;;7.15;5.95;;;;;;;;;;5133027;27;20058;-59
2023/06/08 10:08:52;;;;;;;;;;;;;;;;;;5134314;27;20074;-59
2023/06/08 10:11:19;;;;;;;5.30;4.17;;;;;;;;;;5133406;27;20367;-59
2023/06/08 10:13:46;;;;;;;5.82;5.22;;;;;;;;;;5133346;27;20051;-59
2023/06/08 10:16:14;;;;;;;6.25;5.07;;;;;;;;;;5133526;27;20593;-59
2023/06/08 10:18:42;;;;;;;6.13;4.38;;;;;;;;;;5133602;27;20511;-59
2023/06/08 10:21:09;;;;;;;5.70;4.97;;;;;;;;;;5133206;27;20055;-59
2023/06/08 10:23:36;;;;;;;6.78;5.15;;;;;;;;;;5133373;28;20043;-59
2023/06/08 10:26:04;;;;;;;5.65;4.80;;;;;;;;;;5133603;28;20073;-59
2023/06/08 10:28:31;;;;;;;7.28;5.18;;;;;;;;;;5133183;28;20055;-59
2023/06/08 10:30:57;;;;;;;5.93;4.40;;;;;;;;;;5133085;28;20051;-59
2023/06/08 10:33:27;;;;;;;7.00;5.18;;;;;;;;;;5133204;28;20047;-59
2023/06/08 10:36:03;;;;;;;5.95;5.10;;;;;;;;;;5133166;28;20058;-59
2023/06/08 10:38:32;;;;;;;5.50;4.50;;;;;;;;;;5133204;28;20054;-59
2023/06/08 10:41:01;;;;;;;6.15;4.55;;;;;;;;;;5133040;28;20058;-59
2023/06/08 10:43:28;;;;;;;7.35;4.70;;;;;;;;;;5133062;28;20059;-59
2023/06/08 10:45:55;;;;;;;5.88;4.50;;;;;;;;;;5133069;28;20051;-59
2023/06/08 10:48:22;;;;;;;5.60;4.75;;;;;;;;;;5133116;28;20051;-59
2023/06/08 10:50:51;;;;;;;6.93;4.78;;;;;;;;;;5133111;28;20047;-59
2023/06/08 10:53:18;;;;;;;4.97;4.40;;;;;;;;;;5133146;28;20537;-59
2023/06/08 10:55:47;;;;;;;7.18;4.63;;;;;;;;;;5132539;28;20074;-59
2023/06/08 10:58:16;;;;;;;5.75;4.55;;;;;;;;;;5133168;28;20058;-60
2023/06/08 11:00:43;;;;;;;5.05;4.55;;;;;;;;;;5128924;28;20070;-59
2023/06/08 11:03:11;;;;;;;6.18;4.28;;;;;;;;;;5120859;28;20058;-59
2023/06/08 11:05:39;;;;;;;5.60;4.10;;;;;;;;;;5132679;28;20051;-59
2023/06/08 11:08:08;;;;;;;5.57;4.38;;;;;;;;;;5133055;28;20418;-58
2023/06/08 11:10:37;;;;;;;4.90;4.10;;;;;;;;;;5132947;28;20047;-50
2023/06/08 11:13:06;;;;;;;5.47;4.50;;;;;;;;;;5138642;28;20047;-53
2023/06/08 11:15:35;;;;;;;5.97;4.10;;;;;;;;;;5132904;28;20054;-52
2023/06/08 11:18:03;;;;;;;5.18;4.35;;;;;;;;;;5133660;27;20050;-52
2023/06/08 11:20:30;;;;;;;4.40;3.92;;;;;;;;;;5136304;27;20407;-53
2023/06/08 11:22:57;;;;;;;;;;;;;;;;;;5137418;27;20054;-51
2023/06/08 11:25:25;;;;;;;6.00;4.10;;;;;;;;;;5136756;27;19921;-54
2023/06/08 11:27:55;;;;;;;5.13;4.10;;;;;;;;;;5136560;27;20507;-54
2023/06/08 11:30:22;;;;;;;4.80;3.75;;;;;;;;;;5136609;27;20054;-54
2023/06/08 11:32:50;;;;;;;4.63;3.72;;;;;;;;;;5136864;27;20051;-53
2023/06/08 11:35:18;;;;;;;9.77;4.30;;;;;;;;;;5136629;27;20074;-54
2023/06/08 11:37:45;;;;;;;6.80;4.20;;;;;;;;;;5136678;27;20055;-54
2023/06/08 11:40:12;;;;;;;4.55;4.13;;;;;;;;;;5136244;27;20062;-52
2023/06/08 11:42:41;;;;;;;4.47;3.80;;;;;;;;;;5136442;27;20372;-51
2023/06/08 11:45:09;;;;;;;5.75;4.05;;;;;;;;;;5136030;27;20059;-52
2023/06/08 11:47:36;;;;;;;4.53;4.13;;;;;;;;;;5136133;27;20105;-53
2023/06/08 11:50:03;;;;;;;5.45;3.97;;;;;;;;;;5136280;27;20062;-54
2023/06/08 11:52:33;;;;;;;5.50;3.97;;;;;;;;;;5136173;27;20471;-53
2023/06/08 11:55:01;;;;;;;5.75;4.00;;;;;;;;;;5135973;27;20054;-52
2023/06/08 11:57:40;;;;;;;4.30;3.90;;;;;;;;;;5136017;27;20054;-51
2023/06/08 12:00:09;;;;;;;4.22;3.80;;;;;;;;;;5136211;27;20415;-54
2023/06/08 12:02:36;;;;;;;4.32;3.90;;;;;;;;;;5119005;27;20407;-54
2023/06/08 12:05:03;;;;;;;4.03;3.63;;;;;;;;;;5136042;27;20515;-53
2023/06/08 12:07:32;;;;;;;5.95;3.90;;;;;;;;;;5135874;27;20043;-53
2023/06/08 12:09:59;;;;;;;4.93;3.97;;;;;;;;;;5135915;27;20050;-52
2023/06/08 12:12:28;;;;;;;5.28;3.85;;;;;;;;;;5136049;27;20051;-53
2023/06/08 12:14:55;;;;;;;4.55;4.00;;;;;;;;;;5135851;27;20118;-55
2023/06/08 12:17:26;;;;;;;5.05;3.70;;;;;;;;;;5135680;27;20051;-50
2023/06/08 12:19:54;;;;;;;6.25;3.97;;;;;;;;;;5135841;27;20047;-53
2023/06/08 12:22:21;;;;;;;5.65;3.88;;;;;;;;;;5135795;27;20055;-54
2023/06/08 12:24:48;;;;;;;4.80;4.30;;;;;;;;;;5135695;27;20400;-52
2023/06/08 12:27:16;;;;;;;5.97;4.30;;;;;;;;;;5135530;27;20054;-54
2023/06/08 12:29:43;;;;;;;5.22;4.35;;;;;;;;;;5137329;27;20058;-54
2023/06/08 12:32:11;;;;;;;5.28;4.35;;;;;;;;;;5135506;27;20055;-51
2023/06/08 12:34:39;;;;;;;4.18;3.78;;;;;;;;;;5135619;27;20051;-51
2023/06/08 12:37:06;;;;;;;;;;;;;;;;;;5135793;27;20055;-59
2023/06/08 12:39:32;;;;;;;5.45;4.53;;;;;;;;;;5135534;27;19926;-59
2023/06/08 12:42:00;;;;;;;5.20;4.20;;;;;;;;;;5135136;27;20055;-59
2023/06/08 12:44:27;;;;;;;5.57;5.07;;;;;;;;;;5134976;27;20055;-58
2023/06/08 12:46:54;;;;;;;6.07;4.70;;;;;;;;;;5135143;27;21011;-59
2023/06/08 12:49:22;;;;;;;5.75;4.68;;;;;;;;;;5135016;27;20051;-59
2023/06/08 12:51:51;;;;;;;4.72;4.32;;;;;;;;;;5135033;27;20051;-58
2023/06/08 12:54:18;;;;;;;4.70;4.25;;;;;;;;;;5134727;27;20388;-58
2023/06/08 12:56:44;;;;;;;5.30;4.40;;;;;;;;;;5134505;27;20054;-60
2023/06/08 12:59:11;;;;;;;4.80;4.15;;;;;;;;;;5134966;27;20047;-59
2023/06/08 13:01:38;;;;;;;6.78;4.75;;;;;;;;;;5117807;27;20495;-59
2023/06/08 13:04:05;;;;;;;5.95;3.97;;;;;;;;;;5134724;27;20051;-58
2023/06/08 13:06:32;;;;;;;5.70;4.28;;;;;;;;;;5134380;27;20054;-58
2023/06/08 13:09:03;;;;;;;4.72;4.05;;;;;;;;;;5134429;27;20047;-58
2023/06/08 13:11:30;;;;;;;4.20;3.80;;;;;;;;;;5134656;27;20057;-58
2023/06/08 13:13:57;;;;;;;6.32;4.00;;;;;;;;;;5134583;27;20512;-58
2023/06/08 13:16:24;;;;;;;7.30;4.45;;;;;;;;;;5134317;27;20058;-59
2023/06/08 13:18:51;;;;;;;4.80;4.30;;;;;;;;;;5134271;27;20051;-59
2023/06/08 13:21:18;;;;;;;4.65;4.18;;;;;;;;;;5134196;27;20503;-58
2023/06/08 13:23:44;;;;;;;4.20;3.80;;;;;;;;;;5134173;27;20058;-58
2023/06/08 13:26:13;;;;;;;4.63;3.60;;;;;;;;;;5134056;27;20070;-59
2023/06/08 13:28:40;;;;;;;3.95;3.58;;;;;;;;;;5134243;27;20051;-59
2023/06/08 13:31:07;;;;;;;4.37;3.93;;;;;;;;;;5134265;27;20407;-58
2023/06/08 13:33:34;;;;;;;4.15;3.70;;;;;;;;;;5133985;27;20484;-59
2023/06/08 13:36:01;;;;;;;5.63;3.85;;;;;;;;;;5133726;27;20051;-59
2023/06/08 13:38:29;;;;;;;5.07;3.92;;;;;;;;;;5133925;27;20047;-59
2023/06/08 13:40:56;;;;;;;4.10;3.60;;;;;;;;;;5133740;27;20400;-58
2023/06/08 13:43:24;;;;;;;7.70;3.47;;;;;;;;;;5133674;27;20439;-59
2023/06/08 13:45:57;;;;;;;;;;;;;;;;;;5134269;27;20783;-59
2023/06/08 13:48:24;;;;;;;4.18;3.78;;;;;;;;;;5133497;27;19930;-59
2023/06/08 13:50:54;;;;;;;4.40;3.65;;;;;;;;;;5133525;27;20074;-59
2023/06/08 13:53:21;;;;;;;4.13;3.33;;;;;;;;;;5133877;27;20081;-59
2023/06/08 13:55:48;;;;;;;4.13;3.72;;;;;;;;;;5133283;27;20062;-59
2023/06/08 13:58:16;;;;;;;4.28;3.38;;;;;;;;;;5133566;27;20050;-59
2023/06/08 14:00:45;;;;;;;5.00;3.90;;;;;;;;;;5129105;27;20058;-58
2023/06/08 14:03:11;;;;;;;;;;;;;;;;;;5122566;27;20051;-59
2023/06/08 14:05:38;;;;;;;3.92;3.13;;;;;;;;;;5133455;27;19919;-59
2023/06/08 14:08:14;;;;;;;5.00;3.47;;;;;;;;;;5133311;27;20051;-59
2023/06/08 14:10:40;;;;;;;4.22;3.47;;;;;;;;;;5132758;27;20078;-58
2023/06/08 14:13:08;;;;;;;3.83;3.35;;;;;;;;;;5133145;27;20055;-59
2023/06/08 14:15:35;;;;;;;3.85;3.53;;;;;;;;;;5132985;27;20492;-58
2023/06/08 14:18:03;;;;;;;4.53;3.80;;;;;;;;;;5133193;27;20404;-59
2023/06/08 14:20:33;;;;;;;;;;;;;;;;;;5133431;27;20055;-59
2023/06/08 14:23:00;;;;;;;5.18;3.45;;;;;;;;;;5133130;28;19924;-59
2023/06/08 14:25:27;;;;;;;4.68;3.17;;;;;;;;;;5132950;28;20066;-59
2023/06/08 14:27:54;;;;;;;3.72;3.38;;;;;;;;;;5133212;28;20051;-59
2023/06/08 14:30:21;;;;;;;3.55;3.20;;;;;;;;;;5133199;28;20051;-59
2023/06/08 14:32:48;;;;;;;4.80;3.13;;;;;;;;;;5133299;28;20063;-60
2023/06/08 14:35:17;;;;;;;3.33;3.03;;;;;;;;;;5133415;28;20502;-59
2023/06/08 14:37:43;;;;;;;3.78;3.00;;;;;;;;;;5133080;28;20051;-59
2023/06/08 14:40:11;;;;;;;3.22;2.83;;;;;;;;;;5132963;28;20062;-59